createdAt,value
2019-01-14T00:01:01.269Z,88.30
2019-01-14T00:03:29.161Z,88.40
2019-01-14T00:05:58.081Z,87.50
2019-01-14T00:08:26.270Z,87.50
2019-01-14T00:10:53.954Z,87.80
2019-01-14T00:13:21.708Z,87.50
2019-01-14T00:15:50.643Z,87.60
2019-01-14T00:18:18.280Z,87.20
2019-01-14T00:20:45.975Z,87.10
2019-01-14T00:23:13.753Z,87.60
2019-01-14T00:25:41.391Z,88.30
2019-01-14T00:28:09.526Z,88.40
2019-01-14T00:30:37.122Z,87.70
2019-01-14T00:33:06.232Z,87.60
2019-01-14T00:35:33.810Z,86.40
2019-01-14T00:38:01.469Z,86.70
2019-01-14T00:40:29.765Z,87.40
2019-01-14T00:42:57.458Z,87.00
2019-01-14T00:45:25.072Z,86.70
2019-01-14T00:47:52.930Z,86.40
2019-01-14T00:50:20.624Z,86.60
2019-01-14T00:52:48.276Z,87.00
2019-01-14T00:55:15.954Z,87.80
2019-01-14T00:57:43.687Z,87.20
2019-01-14T01:00:14.855Z,87.40
2019-01-14T01:02:42.573Z,87.50
2019-01-14T01:05:10.637Z,86.80
2019-01-14T01:07:38.221Z,85.80
2019-01-14T01:10:06.942Z,86.40
2019-01-14T01:12:34.717Z,86.50
2019-01-14T01:15:03.862Z,86.80
2019-01-14T01:17:31.620Z,86.70
2019-01-14T01:19:59.447Z,87.10
2019-01-14T01:22:30.150Z,87.10
2019-01-14T01:24:57.779Z,87.80
2019-01-14T01:27:25.404Z,88.10
2019-01-14T01:29:53.144Z,87.80
2019-01-14T01:32:20.797Z,88.20
2019-01-14T01:34:48.405Z,88.60
2019-01-14T01:37:16.911Z,89.10
2019-01-14T01:39:44.728Z,90.00
2019-01-14T01:42:14.413Z,90.20
2019-01-14T01:44:41.845Z,90.50
2019-01-14T01:47:09.449Z,90.80
2019-01-14T01:49:37.053Z,91.00
2019-01-14T01:52:05.009Z,91.20
2019-01-14T01:54:32.871Z,91.30
2019-01-14T01:57:00.420Z,91.30
2019-01-14T01:59:28.076Z,91.40
2019-01-14T02:01:55.714Z,91.60
2019-01-14T02:04:23.316Z,91.50
2019-01-14T02:06:50.978Z,91.60
2019-01-14T02:09:18.684Z,91.50
2019-01-14T02:11:46.365Z,91.40
2019-01-14T02:14:14.145Z,91.40
2019-01-14T02:16:42.537Z,91.50
2019-01-14T02:19:10.084Z,91.40
2019-01-14T02:21:37.708Z,91.40
2019-01-14T02:24:05.305Z,91.00
2019-01-14T02:26:33.282Z,91.00
2019-01-14T02:29:01.207Z,90.90
2019-01-14T02:31:28.850Z,91.00
2019-01-14T02:33:56.520Z,91.00
2019-01-14T02:36:24.171Z,91.10
2019-01-14T02:38:51.812Z,91.20
2019-01-14T02:41:19.427Z,91.20
2019-01-14T02:43:47.078Z,91.60
2019-01-14T02:46:14.978Z,90.00
2019-01-14T02:48:42.636Z,85.40
2019-01-14T02:51:10.262Z,86.60
2019-01-14T02:53:37.953Z,88.30
2019-01-14T02:56:05.561Z,90.00
2019-01-14T02:58:33.298Z,90.80
2019-01-14T03:01:00.937Z,91.50
2019-01-14T03:03:28.532Z,92.00
2019-01-14T03:05:56.626Z,92.40
2019-01-14T03:08:24.272Z,92.80
2019-01-14T03:10:51.945Z,92.90
2019-01-14T03:13:19.638Z,93.30
2019-01-14T03:15:47.356Z,93.60
2019-01-14T03:18:14.990Z,93.50
2019-01-14T03:20:42.586Z,93.70
2019-01-14T03:23:10.522Z,93.90
2019-01-14T03:25:38.102Z,94.20
2019-01-14T03:28:06.085Z,94.10
2019-01-14T03:30:34.814Z,93.80
2019-01-14T03:33:02.504Z,94.00
2019-01-14T03:35:30.093Z,94.60
2019-01-14T03:37:57.699Z,94.60
2019-01-14T03:40:25.330Z,94.80
2019-01-14T03:42:52.951Z,95.00
2019-01-14T03:45:20.638Z,95.00
2019-01-14T03:47:48.754Z,95.10
2019-01-14T03:50:21.698Z,95.10
2019-01-14T03:52:49.447Z,95.10
2019-01-14T03:55:17.161Z,95.70
2019-01-14T03:57:44.997Z,95.40
2019-01-14T04:00:16.719Z,95.50
2019-01-14T04:02:44.504Z,95.40
2019-01-14T04:05:12.486Z,95.30
2019-01-14T04:07:40.299Z,95.40
2019-01-14T04:10:10.654Z,95.50
2019-01-14T04:12:38.290Z,95.70
2019-01-14T04:15:06.844Z,95.20
2019-01-14T04:17:34.460Z,95.20
2019-01-14T04:20:02.452Z,95.20
2019-01-14T04:22:30.126Z,94.80
2019-01-14T04:24:58.444Z,94.90
2019-01-14T04:27:26.816Z,95.20
2019-01-14T04:29:54.496Z,95.30
2019-01-14T04:32:22.216Z,95.30
2019-01-14T04:34:50.085Z,95.20
2019-01-14T04:37:21.621Z,95.20
2019-01-14T04:39:47.373Z,95.20
2019-01-14T04:42:15.310Z,95.10
2019-01-14T04:44:42.949Z,95.20
2019-01-14T04:47:11.030Z,95.30
2019-01-14T04:49:38.664Z,95.40
2019-01-14T04:52:07.104Z,95.40
2019-01-14T04:54:34.811Z,95.40
2019-01-14T04:57:02.389Z,95.50
2019-01-14T04:59:30.042Z,95.10
2019-01-14T05:01:57.997Z,94.90
2019-01-14T05:04:25.620Z,95.10
2019-01-14T05:06:53.253Z,95.10
2019-01-14T05:09:20.867Z,95.20
2019-01-14T05:11:48.511Z,95.10
2019-01-14T05:14:16.478Z,95.30
2019-01-14T05:16:44.093Z,95.70
2019-01-14T05:19:11.681Z,95.40
2019-01-14T05:21:39.321Z,95.30
2019-01-14T05:24:07.110Z,95.30
2019-01-14T05:26:34.746Z,94.90
2019-01-14T05:29:02.407Z,95.10
2019-01-14T05:31:30.049Z,95.10
2019-01-14T05:33:57.698Z,95.20
2019-01-14T05:36:25.340Z,95.10
2019-01-14T05:38:53.150Z,95.20
2019-01-14T05:41:21.841Z,95.40
2019-01-14T05:43:49.645Z,95.40
2019-01-14T05:46:17.393Z,95.40
2019-01-14T05:48:45.114Z,95.30
2019-01-14T05:51:12.947Z,95.40
2019-01-14T05:53:40.676Z,95.60
2019-01-14T05:56:08.335Z,95.60
2019-01-14T05:58:35.917Z,96.10
2019-01-14T06:01:04.041Z,95.90
2019-01-14T06:03:31.676Z,95.70
2019-01-14T06:05:59.326Z,95.60
2019-01-14T06:08:26.953Z,95.70
2019-01-14T06:10:54.577Z,95.60
2019-01-14T06:13:22.240Z,95.60
2019-01-14T06:15:49.906Z,95.10
2019-01-14T06:18:17.770Z,95.00
2019-01-14T06:20:45.447Z,94.70
2019-01-14T06:23:13.639Z,94.70
2019-01-14T06:25:41.273Z,94.50
2019-01-14T06:28:08.912Z,94.30
2019-01-14T06:30:36.581Z,94.10
2019-01-14T06:33:04.295Z,93.80
2019-01-14T06:35:32.186Z,93.30
2019-01-14T06:37:59.856Z,93.20
2019-01-14T06:40:27.652Z,93.30
2019-01-14T06:42:55.296Z,93.20
2019-01-14T06:45:22.904Z,93.20
2019-01-14T06:47:50.627Z,93.00
2019-01-14T06:50:18.968Z,92.80
2019-01-14T06:52:46.721Z,92.70
2019-01-14T06:55:14.786Z,92.30
2019-01-14T06:57:42.508Z,92.00
2019-01-14T07:00:13.449Z,92.00
2019-01-14T07:02:41.167Z,92.10
2019-01-14T07:05:09.189Z,92.20
2019-01-14T07:07:36.816Z,92.70
2019-01-14T07:10:06.553Z,92.70
2019-01-14T07:12:34.183Z,93.00
2019-01-14T07:15:01.827Z,93.30
2019-01-14T07:17:29.459Z,93.60
2019-01-14T07:19:57.059Z,93.80
2019-01-14T07:22:24.692Z,93.80
2019-01-14T07:24:52.408Z,93.90
2019-01-14T07:27:20.029Z,94.10
2019-01-14T07:29:47.707Z,94.30
2019-01-14T07:32:15.368Z,94.40
2019-01-14T07:34:42.987Z,94.50
2019-01-14T07:37:10.597Z,94.60
2019-01-14T07:39:38.276Z,94.70
2019-01-14T07:42:05.934Z,94.70
2019-01-14T07:44:33.573Z,94.80
2019-01-14T07:47:01.299Z,94.80
2019-01-14T07:49:29.793Z,94.80
2019-01-14T07:51:57.496Z,94.80
2019-01-14T07:54:25.105Z,94.60
2019-01-14T07:56:53.060Z,94.60
2019-01-14T07:59:20.728Z,94.60
2019-01-14T08:01:48.449Z,94.60
2019-01-14T08:04:16.084Z,94.50
2019-01-14T08:06:43.689Z,94.40
2019-01-14T08:09:11.534Z,94.40
2019-01-14T08:11:39.128Z,94.30
2019-01-14T08:14:06.852Z,94.20
2019-01-14T08:16:34.465Z,94.20
2019-01-14T08:19:02.088Z,94.10
2019-01-14T08:21:29.701Z,94.10
2019-01-14T08:23:57.365Z,94.10
2019-01-14T08:26:24.997Z,94.20
2019-01-14T08:28:52.617Z,94.10
2019-01-14T08:31:20.350Z,93.70
2019-01-14T08:33:48.179Z,92.90
2019-01-14T08:36:15.824Z,92.70
2019-01-14T08:38:43.445Z,92.60
2019-01-14T08:41:11.696Z,92.60
2019-01-14T08:43:39.627Z,92.40
2019-01-14T08:46:07.701Z,92.40
2019-01-14T08:48:35.369Z,92.30
2019-01-14T08:51:02.981Z,92.40
2019-01-14T08:53:30.604Z,92.40
2019-01-14T08:55:58.225Z,92.40
2019-01-14T08:58:25.832Z,92.30
2019-01-14T09:00:54.124Z,92.40
2019-01-14T09:03:21.744Z,92.40
2019-01-14T09:05:49.787Z,92.40
2019-01-14T09:08:17.492Z,92.30
2019-01-14T09:10:45.111Z,92.60
2019-01-14T09:13:12.733Z,91.60
2019-01-14T09:15:40.348Z,90.90
2019-01-14T09:18:07.982Z,90.00
2019-01-14T09:20:35.724Z,89.30
2019-01-14T09:23:03.774Z,89.70
2019-01-14T09:25:31.424Z,88.00
2019-01-14T09:27:59.152Z,88.00
2019-01-14T09:30:26.759Z,87.30
2019-01-14T09:32:54.530Z,86.50
2019-01-14T09:35:22.221Z,86.90
2019-01-14T09:37:49.944Z,87.10
2019-01-14T09:40:19.424Z,86.80
2019-01-14T09:42:47.127Z,85.90
2019-01-14T09:45:14.804Z,85.50
2019-01-14T09:47:42.628Z,85.00
2019-01-14T09:50:11.644Z,85.40
2019-01-14T09:52:39.230Z,85.60
2019-01-14T09:55:09.957Z,84.70
2019-01-14T09:57:37.571Z,83.90
2019-01-14T10:00:07.132Z,84.50
2019-01-14T10:02:34.813Z,84.30
2019-01-14T10:05:02.574Z,83.40
2019-01-14T10:07:30.197Z,83.20
2019-01-14T10:09:57.875Z,83.80
2019-01-14T10:12:27.868Z,83.70
2019-01-14T10:14:55.493Z,83.10
2019-01-14T10:17:25.804Z,83.00
2019-01-14T10:19:53.397Z,83.00
2019-01-14T10:22:21.236Z,82.80
2019-01-14T10:24:48.985Z,82.30
2019-01-14T10:27:16.608Z,82.80
2019-01-14T10:29:44.240Z,82.40
2019-01-14T10:32:11.870Z,82.30
2019-01-14T10:34:39.532Z,83.30
2019-01-14T10:37:09.704Z,83.30
2019-01-14T10:39:37.312Z,82.60
2019-01-14T10:42:05.213Z,82.60
2019-01-14T10:44:32.885Z,82.90
2019-01-14T10:47:00.532Z,83.50
2019-01-14T10:49:28.160Z,83.90
2019-01-14T10:51:55.923Z,84.20
2019-01-14T10:54:23.699Z,84.50
2019-01-14T10:56:51.350Z,84.90
2019-01-14T10:59:19.060Z,85.60
2019-01-14T11:01:46.715Z,85.50
2019-01-14T11:04:14.323Z,85.60
2019-01-14T11:06:41.952Z,85.10
2019-01-14T11:09:09.594Z,85.00
2019-01-14T11:11:37.209Z,85.00
2019-01-14T11:14:04.809Z,84.80
2019-01-14T11:16:32.478Z,84.80
2019-01-14T11:19:00.135Z,85.20
2019-01-14T11:21:27.807Z,85.20
2019-01-14T11:23:55.646Z,85.20
2019-01-14T11:26:23.397Z,84.80
2019-01-14T11:28:51.145Z,84.60
2019-01-14T11:31:18.811Z,83.80
2019-01-14T11:33:46.474Z,84.10
2019-01-14T11:36:14.189Z,84.50
2019-01-14T11:38:47.637Z,85.20
2019-01-14T11:41:15.343Z,85.30
2019-01-14T11:43:42.960Z,86.00
2019-01-14T11:46:10.658Z,86.30
2019-01-14T11:48:39.555Z,85.90
2019-01-14T11:51:07.244Z,85.60
2019-01-14T11:53:35.757Z,85.30
2019-01-14T11:56:03.779Z,84.70
2019-01-14T11:58:32.329Z,84.70
2019-01-14T12:00:59.929Z,84.00
2019-01-14T12:03:27.606Z,83.80
2019-01-14T12:05:55.193Z,84.30
2019-01-14T12:08:23.275Z,83.90
2019-01-14T12:10:51.052Z,84.00
2019-01-14T12:13:18.766Z,83.60
2019-01-14T12:15:46.363Z,83.50
2019-01-14T12:18:14.057Z,82.80
2019-01-14T12:20:41.710Z,83.00
2019-01-14T12:23:09.312Z,83.90
2019-01-14T12:25:36.933Z,83.70
2019-01-14T12:28:04.544Z,84.00
2019-01-14T12:30:37.196Z,83.90
2019-01-14T12:33:05.166Z,84.30
2019-01-14T12:35:32.799Z,84.60
2019-01-14T12:38:00.440Z,84.50
2019-01-14T12:40:28.104Z,85.00
2019-01-14T12:42:55.737Z,85.00
2019-01-14T12:45:23.470Z,84.70
2019-01-14T12:47:51.343Z,84.80
2019-01-14T12:50:19.300Z,84.60
2019-01-14T12:52:46.880Z,84.30
2019-01-14T12:55:14.712Z,84.10
2019-01-14T12:57:42.314Z,84.20
2019-01-14T13:00:15.190Z,84.10
2019-01-14T13:02:42.802Z,84.00
2019-01-14T13:05:11.180Z,84.40
2019-01-14T13:07:38.842Z,84.30
2019-01-14T13:10:07.217Z,84.30
2019-01-14T13:12:34.896Z,84.70
2019-01-14T13:15:03.528Z,84.00
2019-01-14T13:17:31.206Z,84.00
2019-01-14T13:19:58.813Z,84.00
2019-01-14T13:22:26.457Z,82.60
2019-01-14T13:24:54.108Z,82.90
2019-01-14T13:27:21.984Z,82.30
2019-01-14T13:29:49.636Z,82.40
2019-01-14T13:32:17.345Z,82.10
2019-01-14T13:34:44.994Z,82.90
2019-01-14T13:37:12.713Z,82.80
2019-01-14T13:39:40.309Z,82.70
2019-01-14T13:42:07.977Z,83.40
2019-01-14T13:44:35.736Z,83.80
2019-01-14T13:47:03.360Z,84.50
2019-01-14T13:49:31.298Z,84.60
2019-01-14T13:51:58.929Z,85.00
2019-01-14T13:54:26.643Z,84.40
2019-01-14T13:56:54.289Z,84.40
2019-01-14T13:59:22.004Z,84.30
2019-01-14T14:01:49.736Z,84.30
2019-01-14T14:04:17.356Z,84.60
2019-01-14T14:06:45.652Z,85.10
2019-01-14T14:09:13.354Z,84.90
2019-01-14T14:11:41.028Z,85.20
2019-01-14T14:14:08.664Z,85.00
2019-01-14T14:16:36.362Z,84.90
2019-01-14T14:19:04.330Z,85.20
2019-01-14T14:21:31.986Z,85.50
2019-01-14T14:23:59.910Z,85.50
2019-01-14T14:26:27.509Z,85.80
2019-01-14T14:28:55.345Z,85.90
2019-01-14T14:31:22.974Z,86.60
2019-01-14T14:33:50.728Z,85.80
2019-01-14T14:36:18.381Z,85.00
2019-01-14T14:38:45.992Z,85.10
2019-01-14T14:41:15.593Z,84.90
2019-01-14T14:43:43.140Z,85.00
2019-01-14T14:46:10.784Z,84.70
2019-01-14T14:48:38.418Z,84.70
2019-01-14T14:51:06.825Z,84.50
2019-01-14T14:53:34.466Z,84.90
2019-01-14T14:56:02.078Z,85.00
2019-01-14T14:58:30.423Z,85.40
2019-01-14T15:00:59.816Z,85.60
2019-01-14T15:03:27.625Z,86.10
2019-01-14T15:05:55.280Z,86.10
2019-01-14T15:08:23.229Z,85.50
2019-01-14T15:10:50.996Z,85.70
2019-01-14T15:13:18.642Z,86.00
2019-01-14T15:15:46.319Z,86.50
2019-01-14T15:18:14.037Z,86.60
2019-01-14T15:20:41.664Z,86.40
2019-01-14T15:23:09.397Z,86.90
2019-01-14T15:25:37.212Z,86.30
2019-01-14T15:28:04.882Z,86.30
2019-01-14T15:30:32.860Z,86.70
2019-01-14T15:33:00.506Z,86.20
2019-01-14T15:35:28.252Z,86.40
2019-01-14T15:37:55.916Z,86.40
2019-01-14T15:40:24.056Z,85.20
2019-01-14T15:42:51.849Z,84.90
2019-01-14T15:45:20.481Z,84.90
2019-01-14T15:47:48.247Z,84.70
2019-01-14T15:50:16.516Z,84.60
2019-01-14T15:52:44.185Z,84.60
2019-01-14T15:55:14.772Z,84.70
2019-01-14T15:57:42.568Z,84.70
2019-01-14T16:00:12.348Z,84.50
2019-01-14T16:02:40.300Z,84.70
2019-01-14T16:05:08.013Z,84.70
2019-01-14T16:07:35.711Z,84.70
2019-01-14T16:10:10.590Z,85.00
2019-01-14T16:12:34.169Z,85.10
2019-01-14T16:15:02.007Z,85.10
2019-01-14T16:17:29.794Z,84.50
2019-01-14T16:19:57.777Z,84.60
2019-01-14T16:22:25.501Z,84.50
2019-01-14T16:24:53.340Z,84.00
2019-01-14T16:27:21.103Z,84.20
2019-01-14T16:29:48.756Z,84.70
2019-01-14T16:32:16.403Z,84.90
2019-01-14T16:34:44.109Z,84.90
2019-01-14T16:37:11.708Z,84.60
2019-01-14T16:39:39.373Z,84.50
2019-01-14T16:42:07.124Z,84.40
2019-01-14T16:44:34.790Z,85.00
2019-01-14T16:47:02.485Z,85.00
2019-01-14T16:49:31.405Z,85.00
2019-01-14T16:51:59.117Z,85.00
2019-01-14T16:54:26.825Z,85.20
2019-01-14T16:56:54.583Z,85.60
2019-01-14T16:59:22.447Z,85.80
2019-01-14T17:01:50.133Z,85.70
2019-01-14T17:04:17.884Z,86.20
2019-01-14T17:06:45.524Z,84.80
2019-01-14T17:09:13.182Z,82.50
2019-01-14T17:11:41.169Z,82.20
2019-01-14T17:14:08.737Z,82.90
2019-01-14T17:16:37.462Z,84.00
2019-01-14T17:19:05.180Z,85.00
2019-01-14T17:21:32.905Z,86.10
2019-01-14T17:24:00.544Z,86.90
2019-01-14T17:26:28.319Z,87.30
2019-01-14T17:28:56.152Z,88.10
2019-01-14T17:31:23.902Z,89.10
2019-01-14T17:33:51.661Z,89.80
2019-01-14T17:36:19.402Z,90.10
2019-01-14T17:38:47.122Z,90.10
2019-01-14T17:41:14.925Z,90.50
2019-01-14T17:43:45.292Z,90.70
2019-01-14T17:46:13.124Z,90.80
2019-01-14T17:48:40.810Z,91.00
2019-01-14T17:51:08.466Z,91.30
2019-01-14T17:53:36.201Z,91.40
2019-01-14T17:56:03.840Z,91.60
2019-01-14T17:58:31.526Z,91.90
2019-01-14T18:00:59.211Z,92.00
2019-01-14T18:03:26.876Z,92.10
2019-01-14T18:05:54.717Z,92.20
2019-01-14T18:08:22.539Z,92.20
2019-01-14T18:10:50.172Z,92.20
2019-01-14T18:13:17.835Z,92.20
2019-01-14T18:15:45.525Z,92.40
2019-01-14T18:18:13.337Z,92.60
2019-01-14T18:20:40.988Z,92.50
2019-01-14T18:23:08.598Z,92.20
2019-01-14T18:25:37.608Z,92.10
2019-01-14T18:28:06.159Z,92.00
2019-01-14T18:30:34.161Z,92.40
2019-01-14T18:33:01.826Z,92.00
2019-01-14T18:35:29.481Z,91.80
2019-01-14T18:37:57.193Z,91.80
2019-01-14T18:40:24.894Z,92.00
2019-01-14T18:42:52.529Z,92.50
2019-01-14T18:45:20.252Z,93.10
2019-01-14T18:47:48.028Z,93.50
2019-01-14T18:50:25.868Z,93.60
2019-01-14T18:52:53.644Z,93.70
2019-01-14T18:55:21.673Z,93.80
2019-01-14T18:57:49.333Z,94.10
2019-01-14T19:00:19.299Z,94.20
2019-01-14T19:02:47.088Z,94.20
2019-01-14T19:05:14.928Z,94.40
2019-01-14T19:07:42.551Z,94.20
2019-01-14T19:10:10.796Z,94.20
2019-01-14T19:12:38.704Z,94.20
2019-01-14T19:15:08.887Z,94.40
2019-01-14T19:17:37.615Z,94.20
2019-01-14T19:20:08.309Z,94.30
2019-01-14T19:22:37.297Z,94.30
2019-01-14T19:25:05.589Z,94.30
2019-01-14T19:27:33.267Z,94.40
2019-01-14T19:30:01.128Z,93.90
2019-01-14T19:32:29.004Z,93.70
2019-01-14T19:34:56.656Z,93.70
2019-01-14T19:37:24.440Z,93.10
2019-01-14T19:39:53.484Z,92.90
2019-01-14T19:42:21.146Z,92.90
2019-01-14T19:44:48.752Z,92.60
2019-01-14T19:47:16.406Z,92.40
2019-01-14T19:49:44.030Z,92.60
2019-01-14T19:52:11.668Z,92.40
2019-01-14T19:54:39.363Z,92.40
2019-01-14T19:57:07.012Z,92.40
2019-01-14T19:59:34.657Z,92.10
2019-01-14T20:02:02.308Z,91.80
2019-01-14T20:04:30.090Z,91.60
2019-01-14T20:06:57.757Z,91.80
2019-01-14T20:09:26.357Z,92.00
2019-01-14T20:11:54.049Z,92.20
2019-01-14T20:14:21.736Z,92.40
2019-01-14T20:16:49.626Z,92.70
2019-01-14T20:19:17.389Z,92.60
2019-01-14T20:21:44.988Z,92.70
2019-01-14T20:24:20.473Z,92.70
2019-01-14T20:26:48.452Z,92.70
2019-01-14T20:29:16.106Z,92.70
2019-01-14T20:31:43.721Z,92.20
2019-01-14T20:34:11.413Z,92.40
2019-01-14T20:36:39.044Z,92.50
2019-01-14T20:39:08.741Z,92.50
2019-01-14T20:41:36.491Z,92.40
2019-01-14T20:46:43.273Z,92.40
2019-01-14T20:49:10.916Z,92.50
2019-01-14T20:51:38.592Z,92.60
2019-01-14T20:54:06.223Z,92.40
2019-01-14T20:56:34.035Z,92.20
2019-01-14T20:59:01.720Z,92.20
2019-01-14T21:01:29.443Z,92.30
2019-01-14T21:03:57.386Z,92.40
2019-01-14T21:06:25.468Z,92.50
2019-01-14T21:08:53.172Z,92.50
2019-01-14T21:11:24.082Z,92.40
2019-01-14T21:13:50.537Z,91.20
2019-01-14T21:16:18.232Z,91.00
2019-01-14T21:18:46.019Z,91.10
2019-01-14T21:21:13.949Z,91.40
2019-01-14T21:23:41.688Z,91.70
2019-01-14T21:26:09.466Z,91.80
2019-01-14T21:28:37.220Z,91.80
2019-01-14T21:31:04.930Z,91.90
2019-01-14T21:33:33.825Z,92.10
2019-01-14T21:36:01.548Z,92.20
2019-01-14T21:38:29.366Z,92.10
2019-01-14T21:40:57.279Z,92.20
2019-01-14T21:43:25.067Z,92.30
2019-01-14T21:45:53.005Z,92.40
2019-01-14T21:48:20.707Z,92.50
2019-01-14T21:50:48.456Z,92.60
2019-01-14T21:53:16.392Z,93.00
2019-01-14T21:55:44.130Z,92.70
2019-01-14T21:58:11.856Z,92.70
2019-01-14T22:00:39.581Z,92.80
2019-01-14T22:03:07.298Z,92.90
2019-01-14T22:05:35.015Z,92.90
2019-01-14T22:08:02.793Z,92.90
2019-01-14T22:10:30.662Z,92.90
2019-01-14T22:12:58.439Z,92.90
2019-01-14T22:15:26.277Z,93.00
2019-01-14T22:17:54.062Z,93.00
2019-01-14T22:20:31.159Z,93.20
2019-01-14T22:22:54.949Z,93.20
2019-01-14T22:25:22.787Z,93.30
2019-01-14T22:27:50.529Z,93.30
2019-01-14T22:30:20.691Z,93.20
2019-01-14T22:32:48.470Z,92.70
2019-01-14T22:35:17.436Z,92.10
2019-01-14T22:37:46.791Z,92.00
2019-01-14T22:40:15.349Z,91.60
2019-01-14T22:42:43.421Z,91.60
2019-01-14T22:45:11.957Z,91.40
2019-01-14T22:47:39.758Z,91.50
2019-01-14T22:50:10.079Z,91.70
2019-01-14T22:52:37.808Z,91.60
2019-01-14T22:55:05.902Z,91.50
2019-01-14T22:57:33.577Z,91.60
2019-01-14T23:00:01.474Z,91.80
2019-01-14T23:02:31.908Z,91.50
2019-01-14T23:04:59.539Z,91.70
2019-01-14T23:07:27.553Z,91.70
2019-01-14T23:09:55.271Z,91.90
2019-01-14T23:12:23.300Z,92.30
2019-01-14T23:14:51.066Z,92.50
2019-01-14T23:17:18.767Z,92.70
2019-01-14T23:19:46.440Z,92.90
2019-01-14T23:22:14.105Z,93.00
2019-01-14T23:24:41.902Z,93.10
2019-01-14T23:27:12.233Z,93.10
2019-01-14T23:29:40.357Z,93.20
2019-01-14T23:32:08.468Z,93.40
2019-01-14T23:34:36.294Z,93.50
2019-01-14T23:37:04.440Z,93.20
2019-01-14T23:39:33.877Z,93.00
2019-01-14T23:42:02.277Z,93.00
2019-01-14T23:44:30.566Z,93.00
2019-01-14T23:46:58.923Z,92.80
2019-01-14T23:49:26.546Z,92.50
2019-01-14T23:51:54.345Z,92.40
2019-01-14T23:54:22.088Z,92.50
2019-01-14T23:56:49.729Z,92.60
2019-01-14T23:59:17.430Z,92.70
